sensor_id;sensor_type;location;lat;lon;timestamp;pressure;altitude;pressure_sealevel;temperature;humidity
54144;BME280;40050;47.324;18.792;2023-06-14T00:00:05;1000.73;;;15.56;62.15
54144;BME280;40050;47.324;18.792;2023-06-14T00:02:06;1000.77;;;15.54;62.20
54144;BME280;40050;47.324;18.792;2023-06-14T00:04:07;1000.77;;;15.49;62.16
54144;BME280;40050;47.324;18.792;2023-06-14T00:06:08;1000.73;;;15.48;62.19
54144;BME280;40050;47.324;18.792;2023-06-14T00:08:09;1000.81;;;15.49;62.30
54144;BME280;40050;47.324;18.792;2023-06-14T00:10:11;1000.84;;;15.46;62.49
54144;BME280;40050;47.324;18.792;2023-06-14T00:12:12;1000.86;;;15.46;62.65
54144;BME280;40050;47.324;18.792;2023-06-14T00:14:13;1000.83;;;15.46;62.83
54144;BME280;40050;47.324;18.792;2023-06-14T00:16:14;1000.83;;;15.46;62.92
54144;BME280;40050;47.324;18.792;2023-06-14T00:18:15;1000.87;;;15.45;63.18
54144;BME280;40050;47.324;18.792;2023-06-14T00:20:16;1000.89;;;15.43;63.33
54144;BME280;40050;47.324;18.792;2023-06-14T00:22:23;1000.95;;;15.42;63.51
54144;BME280;40050;47.324;18.792;2023-06-14T00:24:24;1000.94;;;15.41;63.55
54144;BME280;40050;47.324;18.792;2023-06-14T00:26:25;1000.92;;;15.40;63.44
54144;BME280;40050;47.324;18.792;2023-06-14T00:28:26;1000.99;;;15.38;63.46
54144;BME280;40050;47.324;18.792;2023-06-14T00:30:27;1000.98;;;15.34;63.42
54144;BME280;40050;47.324;18.792;2023-06-14T00:32:27;1000.99;;;15.35;63.48
54144;BME280;40050;47.324;18.792;2023-06-14T00:34:28;1001.06;;;15.38;63.51
54144;BME280;40050;47.324;18.792;2023-06-14T00:36:29;1001.05;;;15.32;63.92
54144;BME280;40050;47.324;18.792;2023-06-14T00:38:30;1001.03;;;15.31;63.99
54144;BME280;40050;47.324;18.792;2023-06-14T00:40:31;1001.01;;;15.31;64.11
54144;BME280;40050;47.324;18.792;2023-06-14T00:42:32;1001.00;;;15.31;64.24
54144;BME280;40050;47.324;18.792;2023-06-14T00:44:33;1000.97;;;15.30;64.19
54144;BME280;40050;47.324;18.792;2023-06-14T00:46:34;1000.99;;;15.30;64.08
54144;BME280;40050;47.324;18.792;2023-06-14T00:48:35;1000.97;;;15.28;64.02
54144;BME280;40050;47.324;18.792;2023-06-14T00:50:37;1000.91;;;15.23;64.04
54144;BME280;40050;47.324;18.792;2023-06-14T00:52:38;1001.02;;;15.28;64.01
54144;BME280;40050;47.324;18.792;2023-06-14T00:54:40;1000.96;;;15.27;64.13
54144;BME280;40050;47.324;18.792;2023-06-14T00:56:44;1000.94;;;15.26;64.23
54144;BME280;40050;47.324;18.792;2023-06-14T00:58:45;1000.95;;;15.29;64.29
54144;BME280;40050;47.324;18.792;2023-06-14T01:00:46;1000.95;;;15.29;64.44
54144;BME280;40050;47.324;18.792;2023-06-14T01:02:47;1000.93;;;15.29;64.50
54144;BME280;40050;47.324;18.792;2023-06-14T01:04:48;1000.91;;;15.30;64.53
54144;BME280;40050;47.324;18.792;2023-06-14T01:06:56;1000.88;;;15.29;64.45
54144;BME280;40050;47.324;18.792;2023-06-14T01:09:18;1000.94;;;15.30;64.57
54144;BME280;40050;47.324;18.792;2023-06-14T01:11:21;1000.93;;;15.30;64.53
54144;BME280;40050;47.324;18.792;2023-06-14T01:15:39;1000.89;;;15.34;64.76
54144;BME280;40050;47.324;18.792;2023-06-14T01:17:40;1000.91;;;15.39;64.69
54144;BME280;40050;47.324;18.792;2023-06-14T01:19:41;1000.89;;;15.39;64.59
54144;BME280;40050;47.324;18.792;2023-06-14T01:21:42;1000.89;;;15.37;64.61
54144;BME280;40050;47.324;18.792;2023-06-14T01:23:43;1000.89;;;15.39;64.60
54144;BME280;40050;47.324;18.792;2023-06-14T01:25:44;1000.85;;;15.40;64.68
54144;BME280;40050;47.324;18.792;2023-06-14T01:27:45;1000.90;;;15.41;64.92
54144;BME280;40050;47.324;18.792;2023-06-14T01:29:46;1000.81;;;15.32;65.05
54144;BME280;40050;47.324;18.792;2023-06-14T01:31:47;1000.90;;;15.41;65.01
54144;BME280;40050;47.324;18.792;2023-06-14T01:33:49;1000.85;;;15.36;65.18
54144;BME280;40050;47.324;18.792;2023-06-14T01:35:51;1000.92;;;15.35;65.32
54144;BME280;40050;47.324;18.792;2023-06-14T01:37:52;1000.93;;;15.35;65.36
54144;BME280;40050;47.324;18.792;2023-06-14T01:39:53;1000.94;;;15.34;65.20
54144;BME280;40050;47.324;18.792;2023-06-14T01:41:55;1000.48;;;15.05;64.92
54144;BME280;40050;47.324;18.792;2023-06-14T01:43:56;1000.95;;;15.33;65.03
54144;BME280;40050;47.324;18.792;2023-06-14T01:45:57;1000.95;;;15.30;65.11
54144;BME280;40050;47.324;18.792;2023-06-14T01:47:59;1000.98;;;15.31;65.45
54144;BME280;40050;47.324;18.792;2023-06-14T01:50:00;1001.02;;;15.32;65.40
54144;BME280;40050;47.324;18.792;2023-06-14T01:52:01;1001.00;;;15.30;65.33
54144;BME280;40050;47.324;18.792;2023-06-14T01:54:02;1000.96;;;15.28;65.43
54144;BME280;40050;47.324;18.792;2023-06-14T01:56:03;1000.99;;;15.27;65.42
54144;BME280;40050;47.324;18.792;2023-06-14T01:58:04;1000.97;;;15.28;65.52
54144;BME280;40050;47.324;18.792;2023-06-14T02:00:05;1000.97;;;15.27;65.58
54144;BME280;40050;47.324;18.792;2023-06-14T02:02:06;1000.94;;;15.22;65.44
54144;BME280;40050;47.324;18.792;2023-06-14T02:04:07;1001.02;;;15.24;65.29
54144;BME280;40050;47.324;18.792;2023-06-14T02:06:08;1001.04;;;15.23;65.05
54144;BME280;40050;47.324;18.792;2023-06-14T02:08:09;1000.99;;;15.22;64.81
54144;BME280;40050;47.324;18.792;2023-06-14T02:10:10;1000.92;;;15.17;64.72
54144;BME280;40050;47.324;18.792;2023-06-14T02:12:11;1001.02;;;15.17;64.81
54144;BME280;40050;47.324;18.792;2023-06-14T02:14:12;1000.92;;;15.09;64.81
54144;BME280;40050;47.324;18.792;2023-06-14T02:16:13;1001.07;;;15.13;64.81
54144;BME280;40050;47.324;18.792;2023-06-14T02:18:14;1000.98;;;15.07;64.85
54144;BME280;40050;47.324;18.792;2023-06-14T02:20:15;1000.97;;;15.05;64.87
54144;BME280;40050;47.324;18.792;2023-06-14T02:22:16;1001.02;;;15.05;64.83
54144;BME280;40050;47.324;18.792;2023-06-14T02:24:17;1001.01;;;15.02;64.93
54144;BME280;40050;47.324;18.792;2023-06-14T02:26:17;1001.06;;;15.01;64.80
54144;BME280;40050;47.324;18.792;2023-06-14T02:28:18;1001.06;;;14.99;64.75
54144;BME280;40050;47.324;18.792;2023-06-14T02:30:19;1001.04;;;14.96;64.72
54144;BME280;40050;47.324;18.792;2023-06-14T02:32:20;1001.00;;;14.92;64.80
54144;BME280;40050;47.324;18.792;2023-06-14T02:34:21;1001.03;;;14.92;65.11
54144;BME280;40050;47.324;18.792;2023-06-14T02:36:22;1001.09;;;14.92;65.29
54144;BME280;40050;47.324;18.792;2023-06-14T02:38:23;1001.08;;;14.91;65.44
54144;BME280;40050;47.324;18.792;2023-06-14T02:40:24;1001.09;;;14.89;65.46
54144;BME280;40050;47.324;18.792;2023-06-14T02:42:25;1001.05;;;14.88;65.55
54144;BME280;40050;47.324;18.792;2023-06-14T02:44:26;1001.09;;;14.88;65.83
54144;BME280;40050;47.324;18.792;2023-06-14T02:46:27;1001.08;;;14.86;65.93
54144;BME280;40050;47.324;18.792;2023-06-14T02:48:28;1001.07;;;14.86;65.84
54144;BME280;40050;47.324;18.792;2023-06-14T02:50:29;1001.08;;;14.87;65.90
54144;BME280;40050;47.324;18.792;2023-06-14T02:52:30;1001.10;;;14.87;65.90
54144;BME280;40050;47.324;18.792;2023-06-14T02:54:31;1001.08;;;14.86;66.12
54144;BME280;40050;47.324;18.792;2023-06-14T02:56:32;1001.07;;;14.84;66.14
54144;BME280;40050;47.324;18.792;2023-06-14T02:58:32;1001.12;;;14.87;66.13
54144;BME280;40050;47.324;18.792;2023-06-14T03:00:33;1001.15;;;14.87;66.27
54144;BME280;40050;47.324;18.792;2023-06-14T03:02:34;1001.13;;;14.86;66.29
54144;BME280;40050;47.324;18.792;2023-06-14T03:04:35;1001.14;;;14.87;66.28
54144;BME280;40050;47.324;18.792;2023-06-14T03:06:36;1001.07;;;14.84;66.40
54144;BME280;40050;47.324;18.792;2023-06-14T03:08:37;1001.09;;;14.84;66.52
54144;BME280;40050;47.324;18.792;2023-06-14T03:10:38;1001.12;;;14.85;66.64
54144;BME280;40050;47.324;18.792;2023-06-14T03:12:39;1001.02;;;14.78;66.82
54144;BME280;40050;47.324;18.792;2023-06-14T03:14:40;1001.11;;;14.83;66.85
54144;BME280;40050;47.324;18.792;2023-06-14T03:16:41;1001.13;;;14.85;66.99
54144;BME280;40050;47.324;18.792;2023-06-14T03:18:42;1001.17;;;14.84;66.95
54144;BME280;40050;47.324;18.792;2023-06-14T03:20:42;1001.11;;;14.85;66.88
54144;BME280;40050;47.324;18.792;2023-06-14T03:22:43;1001.14;;;14.85;66.92
54144;BME280;40050;47.324;18.792;2023-06-14T03:24:44;1001.15;;;14.86;67.01
54144;BME280;40050;47.324;18.792;2023-06-14T03:26:45;1001.19;;;14.88;67.18
54144;BME280;40050;47.324;18.792;2023-06-14T03:28:46;1001.15;;;14.84;67.19
54144;BME280;40050;47.324;18.792;2023-06-14T03:30:48;1001.18;;;14.86;67.34
54144;BME280;40050;47.324;18.792;2023-06-14T03:32:49;1001.16;;;14.86;67.44
54144;BME280;40050;47.324;18.792;2023-06-14T03:34:50;1001.14;;;14.87;67.49
54144;BME280;40050;47.324;18.792;2023-06-14T03:36:50;1001.12;;;14.88;67.63
54144;BME280;40050;47.324;18.792;2023-06-14T03:38:51;1001.17;;;14.89;67.70
54144;BME280;40050;47.324;18.792;2023-06-14T03:40:52;1001.24;;;14.89;67.84
54144;BME280;40050;47.324;18.792;2023-06-14T03:42:54;1001.28;;;14.91;67.94
54144;BME280;40050;47.324;18.792;2023-06-14T03:44:54;1001.26;;;14.91;68.04
54144;BME280;40050;47.324;18.792;2023-06-14T03:46:55;1001.33;;;14.94;68.45
54144;BME280;40050;47.324;18.792;2023-06-14T03:48:56;1001.33;;;14.97;68.74
54144;BME280;40050;47.324;18.792;2023-06-14T03:50:57;1001.30;;;14.97;68.70
54144;BME280;40050;47.324;18.792;2023-06-14T03:52:58;1001.35;;;15.01;68.91
54144;BME280;40050;47.324;18.792;2023-06-14T03:54:59;1001.38;;;15.06;69.01
54144;BME280;40050;47.324;18.792;2023-06-14T03:57:00;1001.38;;;15.10;69.07
54144;BME280;40050;47.324;18.792;2023-06-14T03:59:01;1001.39;;;15.07;69.21
54144;BME280;40050;47.324;18.792;2023-06-14T04:01:02;1001.37;;;15.17;69.42
54144;BME280;40050;47.324;18.792;2023-06-14T04:03:03;1001.37;;;15.21;69.50
54144;BME280;40050;47.324;18.792;2023-06-14T04:05:04;1001.40;;;15.25;69.58
54144;BME280;40050;47.324;18.792;2023-06-14T04:07:05;1001.42;;;15.30;69.67
54144;BME280;40050;47.324;18.792;2023-06-14T04:09:06;1001.42;;;15.32;69.80
54144;BME280;40050;47.324;18.792;2023-06-14T04:11:07;1001.49;;;15.38;69.75
54144;BME280;40050;47.324;18.792;2023-06-14T04:13:08;1001.52;;;15.39;70.06
54144;BME280;40050;47.324;18.792;2023-06-14T04:15:09;1001.48;;;15.45;70.22
54144;BME280;40050;47.324;18.792;2023-06-14T04:17:10;1001.49;;;15.51;70.36
54144;BME280;40050;47.324;18.792;2023-06-14T04:19:11;1001.46;;;15.56;70.38
54144;BME280;40050;47.324;18.792;2023-06-14T04:21:12;1001.44;;;15.61;70.44
54144;BME280;40050;47.324;18.792;2023-06-14T04:23:13;1001.44;;;15.66;70.33
54144;BME280;40050;47.324;18.792;2023-06-14T04:25:14;1001.45;;;15.69;70.46
54144;BME280;40050;47.324;18.792;2023-06-14T04:27:15;1001.48;;;15.75;70.29
54144;BME280;40050;47.324;18.792;2023-06-14T04:29:16;1001.45;;;15.80;70.38
54144;BME280;40050;47.324;18.792;2023-06-14T04:31:20;1001.50;;;15.85;70.55
54144;BME280;40050;47.324;18.792;2023-06-14T04:33:21;1001.53;;;15.91;70.54
54144;BME280;40050;47.324;18.792;2023-06-14T04:35:22;1001.56;;;15.95;70.66
54144;BME280;40050;47.324;18.792;2023-06-14T04:37:23;1001.57;;;15.99;70.73
54144;BME280;40050;47.324;18.792;2023-06-14T04:39:24;1001.64;;;16.08;70.71
54144;BME280;40050;47.324;18.792;2023-06-14T04:41:25;1001.65;;;16.14;70.83
54144;BME280;40050;47.324;18.792;2023-06-14T04:43:26;1001.63;;;16.25;70.50
54144;BME280;40050;47.324;18.792;2023-06-14T04:45:27;1001.62;;;16.27;70.50
54144;BME280;40050;47.324;18.792;2023-06-14T04:47:28;1001.63;;;16.35;70.54
54144;BME280;40050;47.324;18.792;2023-06-14T04:49:29;1001.67;;;16.43;70.39
54144;BME280;40050;47.324;18.792;2023-06-14T04:51:30;1001.60;;;16.55;70.35
54144;BME280;40050;47.324;18.792;2023-06-14T04:53:31;1001.63;;;16.70;70.34
54144;BME280;40050;47.324;18.792;2023-06-14T04:55:32;1001.66;;;16.83;69.58
54144;BME280;40050;47.324;18.792;2023-06-14T04:57:33;1001.60;;;16.97;69.31
54144;BME280;40050;47.324;18.792;2023-06-14T04:59:34;1001.60;;;17.05;68.79
54144;BME280;40050;47.324;18.792;2023-06-14T05:01:35;1001.61;;;17.17;68.84
54144;BME280;40050;47.324;18.792;2023-06-14T05:03:36;1001.65;;;17.34;68.69
54144;BME280;40050;47.324;18.792;2023-06-14T05:05:36;1001.56;;;17.44;68.08
54144;BME280;40050;47.324;18.792;2023-06-14T05:07:37;1001.64;;;17.56;67.99
54144;BME280;40050;47.324;18.792;2023-06-14T05:09:38;1001.70;;;17.75;67.32
54144;BME280;40050;47.324;18.792;2023-06-14T05:11:39;1001.57;;;17.81;67.67
54144;BME280;40050;47.324;18.792;2023-06-14T05:13:40;1001.68;;;18.03;67.62
54144;BME280;40050;47.324;18.792;2023-06-14T05:15:41;1001.65;;;18.18;66.44
54144;BME280;40050;47.324;18.792;2023-06-14T05:17:42;1001.65;;;18.30;65.71
54144;BME280;40050;47.324;18.792;2023-06-14T05:19:43;1001.68;;;18.42;64.88
54144;BME280;40050;47.324;18.792;2023-06-14T05:21:44;1001.67;;;18.57;64.54
54144;BME280;40050;47.324;18.792;2023-06-14T05:23:45;1001.76;;;18.70;63.64
54144;BME280;40050;47.324;18.792;2023-06-14T05:25:46;1001.78;;;18.76;62.87
54144;BME280;40050;47.324;18.792;2023-06-14T05:27:47;1001.68;;;18.77;62.79
54144;BME280;40050;47.324;18.792;2023-06-14T05:29:48;1001.81;;;18.92;62.43
54144;BME280;40050;47.324;18.792;2023-06-14T05:31:49;1001.83;;;19.06;62.70
54144;BME280;40050;47.324;18.792;2023-06-14T05:33:50;1001.83;;;19.17;62.70
54144;BME280;40050;47.324;18.792;2023-06-14T05:35:51;1001.82;;;19.32;61.89
54144;BME280;40050;47.324;18.792;2023-06-14T05:37:52;1001.84;;;19.43;62.00
54144;BME280;40050;47.324;18.792;2023-06-14T05:39:53;1001.82;;;19.53;60.99
54144;BME280;40050;47.324;18.792;2023-06-14T05:41:54;1001.87;;;19.66;60.67
54144;BME280;40050;47.324;18.792;2023-06-14T05:43:55;1001.83;;;19.73;60.93
54144;BME280;40050;47.324;18.792;2023-06-14T05:45:56;1001.87;;;19.85;60.78
54144;BME280;40050;47.324;18.792;2023-06-14T05:47:57;1001.88;;;19.99;60.24
54144;BME280;40050;47.324;18.792;2023-06-14T05:49:58;1001.82;;;20.09;59.52
54144;BME280;40050;47.324;18.792;2023-06-14T05:51:59;1001.80;;;20.12;59.18
54144;BME280;40050;47.324;18.792;2023-06-14T05:54:00;1001.81;;;20.25;59.61
54144;BME280;40050;47.324;18.792;2023-06-14T05:56:01;1001.85;;;20.36;59.07
54144;BME280;40050;47.324;18.792;2023-06-14T05:58:02;1001.80;;;20.43;58.53
54144;BME280;40050;47.324;18.792;2023-06-14T06:00:03;1001.84;;;20.58;58.04
54144;BME280;40050;47.324;18.792;2023-06-14T06:02:04;1001.78;;;20.73;58.04
54144;BME280;40050;47.324;18.792;2023-06-14T06:04:05;1001.83;;;20.85;57.74
54144;BME280;40050;47.324;18.792;2023-06-14T06:06:06;1001.84;;;20.91;57.95
54144;BME280;40050;47.324;18.792;2023-06-14T06:08:06;1001.82;;;21.04;57.57
54144;BME280;40050;47.324;18.792;2023-06-14T06:10:08;1001.90;;;21.03;56.03
54144;BME280;40050;47.324;18.792;2023-06-14T06:12:09;1001.89;;;20.99;56.21
54144;BME280;40050;47.324;18.792;2023-06-14T06:14:10;1001.87;;;21.03;56.51
54144;BME280;40050;47.324;18.792;2023-06-14T06:16:10;1001.86;;;21.04;56.61
54144;BME280;40050;47.324;18.792;2023-06-14T06:18:11;1001.86;;;20.97;56.79
54144;BME280;40050;47.324;18.792;2023-06-14T06:20:12;1001.81;;;20.96;56.72
54144;BME280;40050;47.324;18.792;2023-06-14T06:22:13;1001.78;;;20.95;56.22
54144;BME280;40050;47.324;18.792;2023-06-14T06:24:14;1001.78;;;20.95;56.89
54144;BME280;40050;47.324;18.792;2023-06-14T06:26:15;1001.77;;;21.03;56.17
54144;BME280;40050;47.324;18.792;2023-06-14T06:28:16;1001.76;;;21.05;56.33
54144;BME280;40050;47.324;18.792;2023-06-14T06:30:17;1001.88;;;21.02;55.40
54144;BME280;40050;47.324;18.792;2023-06-14T06:32:18;1001.82;;;21.10;55.35
54144;BME280;40050;47.324;18.792;2023-06-14T06:34:19;1001.83;;;21.12;55.93
54144;BME280;40050;47.324;18.792;2023-06-14T06:36:20;1001.86;;;20.99;55.52
54144;BME280;40050;47.324;18.792;2023-06-14T06:38:23;1001.86;;;21.03;55.62
54144;BME280;40050;47.324;18.792;2023-06-14T06:40:24;1001.93;;;21.02;55.94
54144;BME280;40050;47.324;18.792;2023-06-14T06:42:25;1001.90;;;20.92;55.93
54144;BME280;40050;47.324;18.792;2023-06-14T06:44:26;1001.90;;;20.85;54.90
54144;BME280;40050;47.324;18.792;2023-06-14T06:46:27;1001.93;;;20.87;55.34
54144;BME280;40050;47.324;18.792;2023-06-14T06:48:28;1001.96;;;20.88;55.01
54144;BME280;40050;47.324;18.792;2023-06-14T06:50:29;1001.97;;;20.86;55.00
54144;BME280;40050;47.324;18.792;2023-06-14T06:52:30;1001.98;;;20.79;55.57
54144;BME280;40050;47.324;18.792;2023-06-14T06:54:31;1001.99;;;20.81;55.87
54144;BME280;40050;47.324;18.792;2023-06-14T06:56:32;1002.02;;;20.81;56.04
54144;BME280;40050;47.324;18.792;2023-06-14T06:58:33;1002.01;;;20.81;56.65
54144;BME280;40050;47.324;18.792;2023-06-14T07:00:36;1002.06;;;20.94;57.43
54144;BME280;40050;47.324;18.792;2023-06-14T07:02:37;1001.99;;;20.95;56.34
54144;BME280;40050;47.324;18.792;2023-06-14T07:04:38;1001.97;;;21.02;55.72
54144;BME280;40050;47.324;18.792;2023-06-14T07:06:39;1001.75;;;20.79;55.42
54144;BME280;40050;47.324;18.792;2023-06-14T07:08:40;1001.97;;;21.01;55.92
54144;BME280;40050;47.324;18.792;2023-06-14T07:10:41;1001.90;;;21.00;56.13
54144;BME280;40050;47.324;18.792;2023-06-14T07:12:42;1002.00;;;21.12;55.67
54144;BME280;40050;47.324;18.792;2023-06-14T07:14:42;1001.97;;;21.15;55.58
54144;BME280;40050;47.324;18.792;2023-06-14T07:16:43;1001.97;;;21.20;55.61
54144;BME280;40050;47.324;18.792;2023-06-14T07:18:44;1001.95;;;21.30;55.05
54144;BME280;40050;47.324;18.792;2023-06-14T07:20:45;1001.95;;;21.24;54.15
54144;BME280;40050;47.324;18.792;2023-06-14T07:22:46;1001.75;;;21.19;53.72
54144;BME280;40050;47.324;18.792;2023-06-14T07:24:47;1001.88;;;21.39;53.97
54144;BME280;40050;47.324;18.792;2023-06-14T07:26:48;1001.85;;;21.52;54.36
54144;BME280;40050;47.324;18.792;2023-06-14T07:28:49;1001.73;;;21.64;53.96
54144;BME280;40050;47.324;18.792;2023-06-14T07:30:50;1001.95;;;21.94;54.46
54144;BME280;40050;47.324;18.792;2023-06-14T07:32:51;1001.94;;;22.20;53.85
54144;BME280;40050;47.324;18.792;2023-06-14T07:34:52;1001.91;;;22.53;53.59
54144;BME280;40050;47.324;18.792;2023-06-14T07:36:55;1001.97;;;22.87;53.35
54144;BME280;40050;47.324;18.792;2023-06-14T07:38:56;1001.98;;;23.12;51.39
54144;BME280;40050;47.324;18.792;2023-06-14T07:40:57;1002.00;;;23.29;50.99
54144;BME280;40050;47.324;18.792;2023-06-14T07:42:58;1002.01;;;23.41;50.41
54144;BME280;40050;47.324;18.792;2023-06-14T07:44:59;1002.08;;;23.50;50.42
54144;BME280;40050;47.324;18.792;2023-06-14T07:47:00;1002.11;;;23.61;50.23
54144;BME280;40050;47.324;18.792;2023-06-14T07:49:01;1002.07;;;23.59;49.14
54144;BME280;40050;47.324;18.792;2023-06-14T07:51:02;1002.14;;;23.57;48.77
54144;BME280;40050;47.324;18.792;2023-06-14T07:53:03;1002.14;;;23.56;49.19
54144;BME280;40050;47.324;18.792;2023-06-14T07:55:04;1002.15;;;23.44;48.89
54144;BME280;40050;47.324;18.792;2023-06-14T07:57:05;1002.17;;;23.46;48.38
54144;BME280;40050;47.324;18.792;2023-06-14T07:59:06;1002.17;;;23.44;48.63
54144;BME280;40050;47.324;18.792;2023-06-14T08:01:07;1002.17;;;23.37;49.13
54144;BME280;40050;47.324;18.792;2023-06-14T08:03:08;1002.20;;;23.40;49.04
54144;BME280;40050;47.324;18.792;2023-06-14T08:05:12;1002.21;;;23.41;48.57
54144;BME280;40050;47.324;18.792;2023-06-14T08:07:13;1002.20;;;23.35;49.16
54144;BME280;40050;47.324;18.792;2023-06-14T08:09:14;1002.16;;;23.36;48.74
54144;BME280;40050;47.324;18.792;2023-06-14T08:11:15;1002.03;;;23.24;47.81
54144;BME280;40050;47.324;18.792;2023-06-14T08:13:16;1002.10;;;23.27;48.20
54144;BME280;40050;47.324;18.792;2023-06-14T08:15:17;1002.20;;;23.43;47.97
54144;BME280;40050;47.324;18.792;2023-06-14T08:17:18;1002.18;;;23.42;47.45
54144;BME280;40050;47.324;18.792;2023-06-14T08:19:19;1002.16;;;23.44;46.54
54144;BME280;40050;47.324;18.792;2023-06-14T08:21:19;1002.21;;;23.56;47.45
54144;BME280;40050;47.324;18.792;2023-06-14T08:23:20;1002.22;;;23.60;47.09
54144;BME280;40050;47.324;18.792;2023-06-14T08:25:21;1002.21;;;23.66;46.38
54144;BME280;40050;47.324;18.792;2023-06-14T08:27:22;1002.25;;;23.69;46.25
54144;BME280;40050;47.324;18.792;2023-06-14T08:29:23;1002.25;;;23.71;45.43
54144;BME280;40050;47.324;18.792;2023-06-14T08:31:24;1002.32;;;23.77;45.37
54144;BME280;40050;47.324;18.792;2023-06-14T08:33:25;1002.30;;;23.67;46.39
54144;BME280;40050;47.324;18.792;2023-06-14T08:35:26;1002.35;;;23.66;47.34
54144;BME280;40050;47.324;18.792;2023-06-14T08:37:27;1002.39;;;23.69;46.50
54144;BME280;40050;47.324;18.792;2023-06-14T08:39:28;1002.39;;;23.72;45.91
54144;BME280;40050;47.324;18.792;2023-06-14T08:41:29;1002.43;;;23.66;46.23
54144;BME280;40050;47.324;18.792;2023-06-14T08:43:29;1002.44;;;23.59;46.00
54144;BME280;40050;47.324;18.792;2023-06-14T08:45:30;1002.47;;;23.55;46.39
54144;BME280;40050;47.324;18.792;2023-06-14T08:47:31;1002.48;;;23.55;47.20
54144;BME280;40050;47.324;18.792;2023-06-14T08:49:32;1002.46;;;23.60;46.72
54144;BME280;40050;47.324;18.792;2023-06-14T08:51:34;1002.27;;;23.46;46.61
54144;BME280;40050;47.324;18.792;2023-06-14T08:53:36;1002.54;;;23.69;46.34
54144;BME280;40050;47.324;18.792;2023-06-14T08:55:38;1002.53;;;23.69;46.48
54144;BME280;40050;47.324;18.792;2023-06-14T08:57:39;1002.44;;;23.65;46.43
54144;BME280;40050;47.324;18.792;2023-06-14T08:59:43;1002.61;;;23.71;47.22
54144;BME280;40050;47.324;18.792;2023-06-14T09:01:46;1002.62;;;23.73;47.38
54144;BME280;40050;47.324;18.792;2023-06-14T09:03:48;1002.58;;;23.75;46.95
54144;BME280;40050;47.324;18.792;2023-06-14T09:05:49;1002.66;;;23.79;47.93
54144;BME280;40050;47.324;18.792;2023-06-14T09:07:50;1002.62;;;23.75;47.12
54144;BME280;40050;47.324;18.792;2023-06-14T09:10:04;1002.58;;;23.93;47.05
54144;BME280;40050;47.324;18.792;2023-06-14T09:12:05;1002.58;;;24.00;46.41
54144;BME280;40050;47.324;18.792;2023-06-14T09:14:07;1002.57;;;24.04;46.44
54144;BME280;40050;47.324;18.792;2023-06-14T09:16:08;1002.49;;;24.01;46.07
54144;BME280;40050;47.324;18.792;2023-06-14T09:18:09;1002.57;;;24.12;45.90
54144;BME280;40050;47.324;18.792;2023-06-14T09:20:10;1002.53;;;24.16;47.08
54144;BME280;40050;47.324;18.792;2023-06-14T09:22:11;1002.55;;;24.31;46.10
54144;BME280;40050;47.324;18.792;2023-06-14T09:24:13;1002.54;;;24.47;46.45
54144;BME280;40050;47.324;18.792;2023-06-14T09:26:15;1002.54;;;24.71;44.10
54144;BME280;40050;47.324;18.792;2023-06-14T09:28:16;1002.55;;;24.86;44.23
54144;BME280;40050;47.324;18.792;2023-06-14T09:30:19;1002.47;;;24.96;44.17
54144;BME280;40050;47.324;18.792;2023-06-14T09:32:20;1002.45;;;25.07;43.40
54144;BME280;40050;47.324;18.792;2023-06-14T09:34:22;1002.42;;;25.04;43.74
54144;BME280;40050;47.324;18.792;2023-06-14T09:36:23;1002.41;;;25.12;44.17
54144;BME280;40050;47.324;18.792;2023-06-14T09:38:24;1002.38;;;25.17;43.70
54144;BME280;40050;47.324;18.792;2023-06-14T09:40:26;1002.39;;;25.30;43.60
54144;BME280;40050;47.324;18.792;2023-06-14T09:42:27;1002.41;;;25.39;43.38
54144;BME280;40050;47.324;18.792;2023-06-14T09:44:28;1002.32;;;25.46;44.28
54144;BME280;40050;47.324;18.792;2023-06-14T09:46:29;1002.34;;;25.65;42.64
54144;BME280;40050;47.324;18.792;2023-06-14T09:48:31;1002.33;;;25.68;43.03
54144;BME280;40050;47.324;18.792;2023-06-14T09:50:31;1002.37;;;25.74;43.69
54144;BME280;40050;47.324;18.792;2023-06-14T09:52:32;1002.32;;;25.95;43.16
54144;BME280;40050;47.324;18.792;2023-06-14T09:54:34;1002.28;;;26.03;42.21
54144;BME280;40050;47.324;18.792;2023-06-14T09:56:41;1002.29;;;26.09;42.11
54144;BME280;40050;47.324;18.792;2023-06-14T09:58:42;1002.33;;;26.15;42.06
54144;BME280;40050;47.324;18.792;2023-06-14T10:00:43;1002.34;;;26.23;41.96
54144;BME280;40050;47.324;18.792;2023-06-14T10:02:45;1002.34;;;26.00;41.09
54144;BME280;40050;47.324;18.792;2023-06-14T10:04:55;1002.33;;;25.88;41.01
54144;BME280;40050;47.324;18.792;2023-06-14T10:06:57;1002.35;;;25.86;41.96
54144;BME280;40050;47.324;18.792;2023-06-14T10:08:59;1002.35;;;25.95;41.66
54144;BME280;40050;47.324;18.792;2023-06-14T10:11:00;1002.34;;;26.06;41.93
54144;BME280;40050;47.324;18.792;2023-06-14T10:13:01;1002.34;;;26.18;42.29
54144;BME280;40050;47.324;18.792;2023-06-14T10:15:02;1002.26;;;26.26;40.53
54144;BME280;40050;47.324;18.792;2023-06-14T10:17:09;1002.29;;;26.23;41.05
54144;BME280;40050;47.324;18.792;2023-06-14T10:19:17;1002.25;;;26.33;41.38
54144;BME280;40050;47.324;18.792;2023-06-14T10:21:24;1002.31;;;26.46;40.47
54144;BME280;40050;47.324;18.792;2023-06-14T10:23:29;1002.24;;;26.45;39.77
54144;BME280;40050;47.324;18.792;2023-06-14T10:25:31;1002.25;;;26.49;40.26
54144;BME280;40050;47.324;18.792;2023-06-14T10:27:33;1002.21;;;26.59;39.66
54144;BME280;40050;47.324;18.792;2023-06-14T10:31:58;1002.24;;;26.71;38.45
54144;BME280;40050;47.324;18.792;2023-06-14T10:33:59;1002.21;;;26.77;38.60
54144;BME280;40050;47.324;18.792;2023-06-14T10:36:10;1002.11;;;26.87;38.32
54144;BME280;40050;47.324;18.792;2023-06-14T10:38:11;1002.13;;;26.90;38.40
54144;BME280;40050;47.324;18.792;2023-06-14T10:40:29;1002.15;;;26.97;38.60
54144;BME280;40050;47.324;18.792;2023-06-14T10:42:31;1002.15;;;27.01;36.85
54144;BME280;40050;47.324;18.792;2023-06-14T10:44:33;1002.12;;;27.09;36.66
54144;BME280;40050;47.324;18.792;2023-06-14T10:46:34;1002.03;;;26.95;36.87